createdAt,value
2019-03-17T07:06:10.175Z,951.49
2019-03-17T07:07:10.148Z,951.49
2019-03-17T07:08:10.129Z,951.49
2019-03-17T07:09:10.104Z,951.45
2019-03-17T07:10:10.076Z,951.50
2019-03-17T07:11:11.129Z,951.55
2019-03-17T07:12:10.035Z,951.51
2019-03-17T07:13:10.008Z,951.53
2019-03-17T07:14:09.987Z,951.55
2019-03-17T07:15:09.966Z,951.54
2019-03-17T07:16:09.946Z,951.50
2019-03-17T07:17:10.724Z,951.47
2019-03-17T07:18:09.904Z,951.47
2019-03-17T07:19:09.883Z,951.50
2019-03-17T07:20:09.865Z,951.43
2019-03-17T07:21:09.848Z,951.46
2019-03-17T07:22:09.825Z,951.44
2019-03-17T07:23:09.815Z,951.42
2019-03-17T07:24:09.787Z,951.43
2019-03-17T07:25:09.768Z,951.35
2019-03-17T07:26:09.748Z,951.38
2019-03-17T07:27:09.729Z,951.40
2019-03-17T07:28:10.511Z,951.43
2019-03-17T07:29:09.692Z,951.43
2019-03-17T07:30:09.676Z,951.45
2019-03-17T07:31:09.657Z,951.45
2019-03-17T07:32:09.636Z,951.46
2019-03-17T07:33:09.619Z,951.42
2019-03-17T07:34:09.600Z,951.47
2019-03-17T07:35:09.582Z,951.50
2019-03-17T07:36:09.564Z,951.47
2019-03-17T07:37:09.646Z,951.44
2019-03-17T07:38:09.528Z,951.44
2019-03-17T07:39:12.073Z,951.46
2019-03-17T07:40:09.492Z,951.38
2019-03-17T07:41:09.475Z,951.40
2019-03-17T07:42:09.456Z,951.39
2019-03-17T07:43:09.438Z,951.43
2019-03-17T07:44:09.421Z,951.48
2019-03-17T07:45:09.406Z,951.46
2019-03-17T07:46:09.384Z,951.44
2019-03-17T07:47:09.366Z,951.37
2019-03-17T07:48:09.352Z,951.36
2019-03-17T07:49:09.331Z,951.38
2019-03-17T07:50:09.318Z,951.37
2019-03-17T07:51:09.296Z,951.36
2019-03-17T07:52:09.281Z,951.36
2019-03-17T07:53:09.262Z,951.37
2019-03-17T07:54:09.245Z,951.38
2019-03-17T07:55:09.229Z,951.47
2019-03-17T07:56:09.216Z,951.46
2019-03-17T07:57:09.197Z,951.46
2019-03-17T07:58:09.175Z,951.47
2019-03-17T07:59:09.158Z,951.47
2019-03-17T08:00:09.142Z,951.50
2019-03-17T08:01:09.121Z,951.51
2019-03-17T08:02:09.105Z,951.49
2019-03-17T08:03:09.089Z,951.51
2019-03-17T08:04:09.072Z,951.54
2019-03-17T08:05:09.053Z,951.53
2019-03-17T08:06:09.037Z,951.55
2019-03-17T08:07:09.019Z,951.59
2019-03-17T08:08:10.015Z,951.55
2019-03-17T08:09:08.984Z,951.58
2019-03-17T08:10:09.718Z,951.54
2019-03-17T08:11:08.951Z,951.51
2019-03-17T08:12:08.934Z,951.50
2019-03-17T08:13:08.915Z,951.47
2019-03-17T08:14:08.899Z,951.45
2019-03-17T08:15:08.881Z,951.48
2019-03-17T08:16:08.869Z,951.50
2019-03-17T08:17:08.846Z,951.54
2019-03-17T08:18:08.831Z,951.51
2019-03-17T08:19:08.813Z,951.50
2019-03-17T08:20:08.796Z,951.53
2019-03-17T08:21:09.529Z,951.50
2019-03-17T08:22:08.761Z,951.50
2019-03-17T08:23:08.744Z,951.51
2019-03-17T08:24:08.728Z,951.49
2019-03-17T08:25:08.721Z,951.54
2019-03-17T08:26:08.693Z,951.47
2019-03-17T08:27:08.676Z,951.50
2019-03-17T08:28:08.659Z,951.47
2019-03-17T08:29:08.641Z,951.44
2019-03-17T08:30:08.626Z,951.42
2019-03-17T08:31:08.608Z,951.43
2019-03-17T08:32:10.843Z,951.46
2019-03-17T08:33:08.573Z,951.40
2019-03-17T08:34:08.556Z,951.45
2019-03-17T08:35:08.542Z,951.48
2019-03-17T08:36:08.525Z,951.46
2019-03-17T08:37:08.505Z,951.40
2019-03-17T08:38:20.914Z,951.44
2019-03-17T08:39:08.476Z,951.43
2019-03-17T08:40:08.455Z,951.37
2019-03-17T08:41:08.436Z,951.36
2019-03-17T08:42:08.419Z,951.41
2019-03-17T08:43:08.402Z,951.41
2019-03-17T08:44:08.386Z,951.43
2019-03-17T08:45:08.373Z,951.44
2019-03-17T08:46:08.352Z,951.46
2019-03-17T08:47:08.335Z,951.40
2019-03-17T08:48:08.317Z,951.41
2019-03-17T08:49:08.300Z,951.43
2019-03-17T08:50:08.284Z,951.42
2019-03-17T08:51:08.268Z,951.43
2019-03-17T08:52:08.251Z,951.37
2019-03-17T08:53:08.233Z,951.34
2019-03-17T08:54:08.970Z,951.38
2019-03-17T08:55:08.199Z,951.39
2019-03-17T08:56:08.182Z,951.38
2019-03-17T08:57:08.165Z,951.44
2019-03-17T08:58:08.146Z,951.44
2019-03-17T08:59:08.129Z,951.44
2019-03-17T09:00:08.120Z,951.41
2019-03-17T09:01:08.099Z,951.37
2019-03-17T09:02:08.079Z,951.34
2019-03-17T09:03:08.063Z,951.36
2019-03-17T09:04:08.045Z,951.32
2019-03-17T09:05:08.789Z,951.33
2019-03-17T09:06:08.011Z,951.24
2019-03-17T09:07:07.995Z,951.25
2019-03-17T09:08:07.978Z,951.25
2019-03-17T09:09:07.959Z,951.26
2019-03-17T09:10:07.943Z,951.27
2019-03-17T09:11:07.926Z,951.18
2019-03-17T09:12:07.909Z,951.17
2019-03-17T09:13:07.895Z,951.21
2019-03-17T09:14:07.876Z,951.21
2019-03-17T09:15:07.861Z,951.16
2019-03-17T09:16:10.095Z,951.14
2019-03-17T09:17:14.177Z,951.14
2019-03-17T09:18:07.808Z,951.15
2019-03-17T09:19:07.793Z,951.14
2019-03-17T09:20:07.775Z,951.17
2019-03-17T09:21:07.756Z,951.15
2019-03-17T09:22:07.738Z,951.14
2019-03-17T09:23:07.723Z,951.06
2019-03-17T09:24:16.652Z,951.12
2019-03-17T09:25:07.689Z,951.11
2019-03-17T09:26:07.693Z,951.09
2019-03-17T09:27:07.655Z,951.04
2019-03-17T09:28:07.638Z,951.03
2019-03-17T09:29:07.621Z,951.06
2019-03-17T09:30:07.604Z,951.02
2019-03-17T09:31:07.796Z,951.05
2019-03-17T09:32:07.570Z,951.07
2019-03-17T09:33:07.552Z,951.04
2019-03-17T09:34:07.536Z,951.05
2019-03-17T09:35:07.519Z,951.02
2019-03-17T09:36:07.504Z,951.05
2019-03-17T09:37:07.485Z,950.99
2019-03-17T09:38:07.518Z,950.98
2019-03-17T09:39:07.451Z,950.91
2019-03-17T09:40:07.434Z,950.93
2019-03-17T09:41:07.415Z,950.90
2019-03-17T09:42:07.400Z,950.89
2019-03-17T09:43:07.383Z,950.91
2019-03-17T09:44:07.367Z,950.96
2019-03-17T09:45:07.349Z,950.90
2019-03-17T09:46:07.332Z,950.93
2019-03-17T09:47:07.316Z,950.91
2019-03-17T09:48:07.298Z,950.90
2019-03-17T09:49:08.031Z,950.93
2019-03-17T09:50:07.264Z,950.90
2019-03-17T09:51:07.248Z,950.92
2019-03-17T09:52:07.229Z,950.79
2019-03-17T09:53:07.215Z,950.80
2019-03-17T09:54:07.195Z,950.80
2019-03-17T09:55:07.179Z,950.83
2019-03-17T09:56:07.162Z,950.88
2019-03-17T09:57:07.145Z,950.94
2019-03-17T09:58:07.128Z,950.89
2019-03-17T09:59:07.111Z,950.90
2019-03-17T10:00:07.094Z,950.94
2019-03-17T10:01:07.076Z,950.94
2019-03-17T10:02:07.062Z,950.88
2019-03-17T10:03:07.043Z,950.87
2019-03-17T10:04:07.029Z,950.85
2019-03-17T10:05:07.860Z,950.80
2019-03-17T10:06:06.992Z,950.82
2019-03-17T10:07:06.975Z,950.83
2019-03-17T10:08:06.961Z,950.88
2019-03-17T10:09:06.940Z,950.90
2019-03-17T10:10:06.924Z,950.89
2019-03-17T10:11:06.906Z,950.91
2019-03-17T10:12:06.891Z,950.89
2019-03-17T10:13:06.873Z,950.87
2019-03-17T10:14:06.855Z,950.93
2019-03-17T10:15:06.854Z,950.91
2019-03-17T10:16:06.896Z,950.87
2019-03-17T10:17:06.804Z,950.89
2019-03-17T10:18:06.787Z,950.93
2019-03-17T10:19:06.770Z,950.97
2019-03-17T10:20:06.754Z,951.00
2019-03-17T10:21:06.735Z,951.01
2019-03-17T10:22:06.719Z,950.96
2019-03-17T10:23:06.702Z,950.96
2019-03-17T10:24:06.701Z,951.00
2019-03-17T10:25:06.670Z,950.97
2019-03-17T10:26:06.653Z,951.04
2019-03-17T10:27:06.636Z,951.03
2019-03-17T10:28:06.618Z,951.05
2019-03-17T10:29:06.606Z,950.99
2019-03-17T10:30:06.583Z,950.99
2019-03-17T10:31:06.609Z,951.04
2019-03-17T10:32:06.549Z,950.93
2019-03-17T10:33:06.532Z,950.91
2019-03-17T10:34:06.515Z,950.91
2019-03-17T10:35:06.505Z,950.91
2019-03-17T10:36:06.481Z,950.89
2019-03-17T10:37:06.465Z,950.99
2019-03-17T10:38:06.445Z,951.02
2019-03-17T10:39:12.384Z,950.97
2019-03-17T10:40:06.465Z,950.96
2019-03-17T10:41:06.395Z,951.00
2019-03-17T10:42:06.378Z,950.95
2019-03-17T10:43:06.365Z,950.90
2019-03-17T10:44:06.345Z,950.86
2019-03-17T10:45:06.327Z,950.87
2019-03-17T10:46:06.380Z,950.87
2019-03-17T10:47:06.294Z,950.88
2019-03-17T10:48:06.278Z,950.87
2019-03-17T10:49:06.259Z,950.80
2019-03-17T10:50:06.241Z,950.78
2019-03-17T10:51:06.233Z,950.82
2019-03-17T10:52:06.210Z,950.79
2019-03-17T10:53:06.192Z,950.74
2019-03-17T10:54:06.173Z,950.74
2019-03-17T10:55:06.158Z,950.73
2019-03-17T10:56:06.142Z,950.77
2019-03-17T10:57:06.126Z,950.79
2019-03-17T10:58:06.109Z,950.80
2019-03-17T10:59:06.089Z,950.72
2019-03-17T11:00:06.073Z,950.72
2019-03-17T11:01:06.058Z,950.70
2019-03-17T11:02:06.038Z,950.73
2019-03-17T11:03:06.025Z,950.73
2019-03-17T11:04:06.005Z,950.64
2019-03-17T11:05:05.986Z,950.61
2019-03-17T11:06:05.969Z,950.62
2019-03-17T11:07:05.953Z,950.66
2019-03-17T11:08:08.187Z,950.63
2019-03-17T11:09:05.918Z,950.58
2019-03-17T11:10:05.901Z,950.60
2019-03-17T11:11:05.884Z,950.59
2019-03-17T11:12:05.869Z,950.63
2019-03-17T11:13:05.850Z,950.58
2019-03-17T11:14:05.883Z,950.54
2019-03-17T11:15:05.815Z,950.53
2019-03-17T11:16:05.799Z,950.52
2019-03-17T11:17:05.782Z,950.54
2019-03-17T11:18:05.765Z,950.55
2019-03-17T11:19:05.750Z,950.56
2019-03-17T11:20:05.731Z,950.62
2019-03-17T11:21:05.712Z,950.70
2019-03-17T11:22:05.697Z,950.69
2019-03-17T11:23:05.710Z,950.68
2019-03-17T11:24:05.662Z,950.67
2019-03-17T11:25:07.898Z,950.69
2019-03-17T11:26:05.630Z,950.73
2019-03-17T11:27:05.612Z,950.68
2019-03-17T11:28:05.596Z,950.70
2019-03-17T11:29:05.577Z,950.71
2019-03-17T11:30:05.559Z,950.71
2019-03-17T11:31:06.294Z,950.68
2019-03-17T11:32:06.680Z,950.64
2019-03-17T11:33:05.515Z,950.66
2019-03-17T11:34:05.492Z,950.64
2019-03-17T11:35:05.477Z,950.66
2019-03-17T11:36:05.457Z,950.65
2019-03-17T11:37:05.441Z,950.63
2019-03-17T11:38:05.426Z,950.66
2019-03-17T11:39:05.408Z,950.70
2019-03-17T11:40:05.391Z,950.67
2019-03-17T11:41:05.374Z,950.65
2019-03-17T11:42:05.356Z,950.65
2019-03-17T11:43:05.340Z,950.67
2019-03-17T11:44:05.323Z,950.63
2019-03-17T11:45:05.314Z,950.69
2019-03-17T11:46:05.288Z,950.71
2019-03-17T11:47:05.270Z,950.64
2019-03-17T11:48:05.254Z,950.69
2019-03-17T11:49:05.235Z,950.67
2019-03-17T11:50:05.220Z,950.69
2019-03-17T11:51:05.203Z,950.66
2019-03-17T11:52:05.186Z,950.65
2019-03-17T11:53:05.977Z,950.62
2019-03-17T11:54:05.152Z,950.61
2019-03-17T11:55:05.136Z,950.62
2019-03-17T11:56:05.125Z,950.60
2019-03-17T11:57:05.105Z,950.56
2019-03-17T11:58:05.085Z,950.60
2019-03-17T11:59:05.067Z,950.54
2019-03-17T12:00:05.051Z,950.55
2019-03-17T12:01:05.034Z,950.44
2019-03-17T12:02:05.018Z,950.45
2019-03-17T12:03:04.998Z,950.49
2019-03-17T12:04:05.732Z,950.49
2019-03-17T12:05:04.965Z,950.45
2019-03-17T12:06:04.948Z,950.45
2019-03-17T12:07:04.930Z,950.45
2019-03-17T12:08:04.913Z,950.45
2019-03-17T12:09:04.895Z,950.39
2019-03-17T12:10:04.879Z,950.37
2019-03-17T12:11:04.863Z,950.36
2019-03-17T12:12:04.845Z,950.40
2019-03-17T12:13:04.828Z,950.39
2019-03-17T12:14:04.811Z,950.41
2019-03-17T12:15:07.898Z,950.40
2019-03-17T12:16:04.777Z,950.41
2019-03-17T12:17:04.762Z,950.38
2019-03-17T12:18:04.743Z,950.39
2019-03-17T12:19:04.725Z,950.41
2019-03-17T12:20:04.709Z,950.41
2019-03-17T12:21:04.695Z,950.33
2019-03-17T12:22:09.333Z,950.36
2019-03-17T12:23:04.658Z,950.41
2019-03-17T12:24:04.641Z,950.41
2019-03-17T12:25:04.621Z,950.43
2019-03-17T12:26:04.605Z,950.36
2019-03-17T12:27:04.589Z,950.32
2019-03-17T12:28:04.571Z,950.33
2019-03-17T12:29:04.555Z,950.37
2019-03-17T12:30:04.537Z,950.30
2019-03-17T12:31:04.521Z,950.23
2019-03-17T12:32:04.503Z,950.17
2019-03-17T12:33:04.486Z,950.25
2019-03-17T12:34:04.469Z,950.30
2019-03-17T12:35:04.453Z,950.25
2019-03-17T12:36:04.436Z,950.27
2019-03-17T12:37:05.976Z,950.26
2019-03-17T12:38:04.401Z,950.28
2019-03-17T12:39:04.384Z,950.26
2019-03-17T12:40:04.374Z,950.25
2019-03-17T12:41:04.348Z,950.24
2019-03-17T12:42:04.331Z,950.30
2019-03-17T12:43:05.117Z,950.30
2019-03-17T12:44:04.298Z,950.28
2019-03-17T12:45:04.280Z,950.35
2019-03-17T12:46:04.268Z,950.26
2019-03-17T12:47:04.246Z,950.30
2019-03-17T12:48:04.230Z,950.19
2019-03-17T12:49:04.214Z,950.23
2019-03-17T12:50:04.194Z,950.26
2019-03-17T12:51:04.178Z,950.29
2019-03-17T12:52:04.161Z,950.28
2019-03-17T12:53:04.147Z,950.22
2019-03-17T12:54:04.130Z,950.23
2019-03-17T12:55:04.109Z,950.19
2019-03-17T12:56:04.177Z,950.18
2019-03-17T12:57:04.074Z,950.21
2019-03-17T12:58:04.057Z,950.17
2019-03-17T12:59:04.791Z,950.18
2019-03-17T13:00:04.027Z,950.13
2019-03-17T13:01:04.006Z,950.20
2019-03-17T13:02:03.990Z,950.14
2019-03-17T13:03:03.972Z,950.17
2019-03-17T13:04:03.955Z,950.22
2019-03-17T13:05:03.937Z,950.11
2019-03-17T13:06:03.921Z,950.21
2019-03-17T13:07:03.909Z,950.19
2019-03-17T13:08:03.891Z,950.25
2019-03-17T13:09:03.868Z,950.22
2019-03-17T13:10:14.982Z,950.17
2019-03-17T13:11:03.833Z,950.17
2019-03-17T13:12:03.819Z,950.17
2019-03-17T13:13:03.799Z,950.27
2019-03-17T13:14:06.692Z,950.19
2019-03-17T13:15:07.519Z,950.24
2019-03-17T13:16:03.820Z,950.20
2019-03-17T13:17:03.739Z,950.24
2019-03-17T13:18:03.714Z,950.33
2019-03-17T13:19:03.700Z,950.12
2019-03-17T13:20:03.684Z,950.13
2019-03-17T13:21:03.713Z,950.16
2019-03-17T13:22:03.664Z,950.14
2019-03-17T13:23:03.633Z,950.26
2019-03-17T13:24:03.679Z,949.69
2019-03-17T13:25:03.611Z,950.06
2019-03-17T13:26:03.589Z,950.09
2019-03-17T13:27:03.560Z,950.05
2019-03-17T13:28:03.545Z,950.04
2019-03-17T13:29:03.524Z,950.07
2019-03-17T13:30:03.518Z,950.04
2019-03-17T13:31:03.492Z,950.66
2019-03-17T13:32:03.524Z,950.45
2019-03-17T13:33:03.456Z,950.11
2019-03-17T13:34:03.442Z,950.21
2019-03-17T13:35:03.428Z,949.94
2019-03-17T13:36:03.409Z,950.05
2019-03-17T13:37:03.394Z,950.06
2019-03-17T13:38:03.375Z,950.01
2019-03-17T13:39:03.357Z,950.01
2019-03-17T13:40:03.345Z,950.03
2019-03-17T13:41:03.321Z,950.00
2019-03-17T13:42:03.303Z,950.10
2019-03-17T13:43:03.284Z,950.13
2019-03-17T13:44:03.280Z,950.06
2019-03-17T13:45:03.249Z,950.04
2019-03-17T13:46:03.231Z,950.15
2019-03-17T13:47:03.209Z,950.23
2019-03-17T13:48:03.192Z,950.29
2019-03-17T13:49:03.177Z,950.48
2019-03-17T13:50:03.151Z,950.48
2019-03-17T13:51:03.136Z,950.39
2019-03-17T13:52:03.110Z,950.41
2019-03-17T13:53:03.092Z,950.48
2019-03-17T13:54:03.069Z,951.08
2019-03-17T13:55:03.048Z,951.33
2019-03-17T13:56:03.028Z,951.40
2019-03-17T13:57:03.010Z,951.51
2019-03-17T13:58:02.985Z,951.53
2019-03-17T13:59:02.966Z,951.53
2019-03-17T14:00:02.948Z,951.42
2019-03-17T14:01:02.924Z,951.42
2019-03-17T14:02:02.909Z,951.43
2019-03-17T14:03:02.883Z,951.38
2019-03-17T14:04:02.863Z,951.25
2019-03-17T14:05:02.842Z,951.21
2019-03-17T14:06:02.819Z,951.12
2019-03-17T14:07:02.796Z,951.02
2019-03-17T14:08:02.775Z,950.85
2019-03-17T14:09:02.751Z,950.81
2019-03-17T14:10:12.975Z,950.84
2019-03-17T14:11:02.708Z,950.79
2019-03-17T14:12:02.687Z,950.75
2019-03-17T14:13:02.665Z,950.66
2019-03-17T14:14:02.644Z,950.58
2019-03-17T14:15:02.625Z,950.62
2019-03-17T14:16:02.605Z,950.54
2019-03-17T14:17:02.579Z,950.51
2019-03-17T14:18:02.558Z,950.40
2019-03-17T14:19:02.536Z,950.42
2019-03-17T14:20:02.514Z,950.39
2019-03-17T14:21:02.502Z,950.39
2019-03-17T14:22:02.468Z,950.34
2019-03-17T14:23:02.449Z,950.34
2019-03-17T14:24:02.426Z,950.37
2019-03-17T14:25:02.403Z,950.29
2019-03-17T14:26:02.383Z,950.32
2019-03-17T14:27:02.360Z,950.36
2019-03-17T14:28:02.344Z,950.38
2019-03-17T14:29:02.314Z,950.41
2019-03-17T14:30:02.294Z,950.51
2019-03-17T14:31:02.279Z,950.54
2019-03-17T14:32:02.250Z,950.55
2019-03-17T14:33:02.228Z,950.52
2019-03-17T14:34:02.223Z,950.50
2019-03-17T14:35:02.185Z,950.57
2019-03-17T14:36:02.163Z,950.58
2019-03-17T14:37:02.139Z,950.52
2019-03-17T14:38:02.133Z,950.51
2019-03-17T14:39:02.099Z,950.50
2019-03-17T14:40:02.074Z,950.42
2019-03-17T14:41:02.051Z,950.55
2019-03-17T14:42:02.029Z,950.45
2019-03-17T14:43:02.007Z,950.44
2019-03-17T14:44:01.987Z,950.53
2019-03-17T14:45:01.962Z,950.54
2019-03-17T14:46:01.941Z,950.44
2019-03-17T14:47:01.919Z,950.44
2019-03-17T14:48:01.896Z,950.57
2019-03-17T14:49:01.873Z,950.58
2019-03-17T14:50:01.851Z,950.70
2019-03-17T14:51:01.829Z,950.67
2019-03-17T14:52:01.806Z,950.75
2019-03-17T14:53:01.783Z,950.82
2019-03-17T14:54:01.760Z,950.84
2019-03-17T14:55:01.741Z,950.89
2019-03-17T14:56:01.722Z,950.96
2019-03-17T14:57:01.696Z,951.01
2019-03-17T14:58:01.669Z,951.21
2019-03-17T14:59:01.650Z,951.26
2019-03-17T15:00:01.626Z,951.48
2019-03-17T15:01:01.603Z,951.50
2019-03-17T15:02:01.579Z,951.64
2019-03-17T15:03:01.556Z,951.62
2019-03-17T15:04:01.534Z,951.86
2019-03-17T15:05:01.510Z,951.87
2019-03-17T15:06:01.489Z,951.97
2019-03-17T15:07:01.464Z,951.92
2019-03-17T15:08:01.441Z,951.92
2019-03-17T15:09:01.417Z,952.01
2019-03-17T15:10:01.393Z,951.78
2019-03-17T15:11:06.153Z,952.01
2019-03-17T15:12:01.346Z,952.09
2019-03-17T15:13:01.320Z,952.14
2019-03-17T15:14:01.298Z,952.11
2019-03-17T15:15:01.273Z,952.07
2019-03-17T15:16:03.135Z,952.16
2019-03-17T15:17:01.225Z,952.12
2019-03-17T15:18:01.204Z,952.09
2019-03-17T15:19:01.175Z,952.31
2019-03-17T15:20:01.150Z,952.34
2019-03-17T15:21:01.127Z,952.31
2019-03-17T15:22:01.101Z,952.31
2019-03-17T15:23:01.076Z,952.31
2019-03-17T15:24:01.049Z,952.55
2019-03-17T15:25:01.033Z,952.68
2019-03-17T15:26:00.999Z,952.58
2019-03-17T15:27:00.981Z,952.57
2019-03-17T15:28:00.949Z,952.78
2019-03-17T15:29:00.924Z,952.59
2019-03-17T15:30:00.916Z,952.72
2019-03-17T15:31:11.608Z,952.68
2019-03-17T15:32:00.848Z,952.70
2019-03-17T15:33:00.821Z,952.85
2019-03-17T15:34:00.796Z,952.90
2019-03-17T15:35:00.773Z,953.21
2019-03-17T15:36:00.745Z,953.02
2019-03-17T15:37:00.718Z,952.92
2019-03-17T15:38:00.695Z,953.06
2019-03-17T15:39:00.667Z,952.97
2019-03-17T15:40:00.642Z,953.14
2019-03-17T15:41:00.614Z,953.11
2019-03-17T15:42:00.589Z,953.09
2019-03-17T15:43:00.564Z,953.16
2019-03-17T15:44:01.290Z,953.05
2019-03-17T15:45:00.511Z,953.20
2019-03-17T15:46:00.485Z,953.22
2019-03-17T15:47:00.461Z,953.22
2019-03-17T15:48:00.432Z,953.17
2019-03-17T15:49:00.405Z,953.29
2019-03-17T15:50:00.380Z,953.46
2019-03-17T15:51:00.352Z,953.24
2019-03-17T15:52:00.326Z,953.29
2019-03-17T15:53:00.309Z,953.11
2019-03-17T15:54:00.270Z,953.35
2019-03-17T15:55:00.374Z,953.41
2019-03-17T15:56:00.219Z,953.51
2019-03-17T15:57:00.191Z,953.58
2019-03-17T15:58:00.164Z,953.55
2019-03-17T15:59:00.137Z,953.58
2019-03-17T16:00:00.114Z,953.68
2019-03-17T16:01:00.088Z,953.72
2019-03-17T16:02:00.057Z,953.72
2019-03-17T16:03:00.032Z,953.66
2019-03-17T16:04:00.004Z,953.48
2019-03-17T16:04:59.974Z,953.68
2019-03-17T16:05:59.950Z,953.61
2019-03-17T16:06:59.922Z,953.56
2019-03-17T16:07:59.894Z,953.75
2019-03-17T16:08:59.866Z,953.70
2019-03-17T16:09:59.838Z,953.68
2019-03-17T16:10:59.811Z,953.70
2019-03-17T16:11:59.783Z,953.71
2019-03-17T16:12:59.756Z,953.78
2019-03-17T16:13:59.732Z,953.77
2019-03-17T16:14:59.704Z,953.88
2019-03-17T16:15:59.674Z,953.79
2019-03-17T16:16:59.645Z,953.92
2019-03-17T16:17:59.621Z,953.76
2019-03-17T16:18:59.594Z,953.75
2019-03-17T16:19:59.565Z,953.93
2019-03-17T16:20:59.537Z,953.87
2019-03-17T16:21:59.509Z,953.97
2019-03-17T16:22:59.481Z,954.01
2019-03-17T16:23:59.454Z,954.03
2019-03-17T16:24:59.424Z,953.98
2019-03-17T16:25:59.398Z,954.00
2019-03-17T16:26:59.369Z,954.12
2019-03-17T16:27:59.341Z,954.10
2019-03-17T16:28:59.312Z,954.06
2019-03-17T16:29:59.285Z,954.11
2019-03-17T16:30:59.258Z,954.04
2019-03-17T16:31:59.230Z,954.10
2019-03-17T16:32:59.207Z,954.17
2019-03-17T16:33:59.244Z,954.10
2019-03-17T16:34:59.146Z,954.14
2019-03-17T16:35:59.118Z,954.09
2019-03-17T16:37:02.091Z,954.19
2019-03-17T16:37:59.062Z,954.22
2019-03-17T16:38:59.034Z,954.21
2019-03-17T16:39:59.005Z,954.24
2019-03-17T16:40:58.976Z,954.32
2019-03-17T16:41:58.947Z,954.29
2019-03-17T16:43:00.436Z,954.23
2019-03-17T16:43:58.892Z,954.30
2019-03-17T16:44:58.862Z,954.26
2019-03-17T16:45:58.834Z,954.29
2019-03-17T16:46:58.806Z,954.29
2019-03-17T16:47:58.778Z,954.33
2019-03-17T16:48:58.750Z,954.29
2019-03-17T16:49:59.109Z,954.33
2019-03-17T16:50:58.695Z,954.39
2019-03-17T16:51:58.664Z,954.40
2019-03-17T16:52:58.635Z,954.42
2019-03-17T16:53:58.611Z,954.48
2019-03-17T16:54:58.577Z,954.50
2019-03-17T16:55:58.550Z,954.54
2019-03-17T16:56:58.521Z,954.56
2019-03-17T16:57:58.492Z,954.62
2019-03-17T16:58:58.464Z,954.71
2019-03-17T16:59:58.435Z,954.67
2019-03-17T17:00:58.406Z,954.78
2019-03-17T17:01:58.378Z,954.82
2019-03-17T17:02:58.352Z,954.87
2019-03-17T17:03:58.320Z,954.93
2019-03-17T17:04:58.292Z,954.94
2019-03-17T17:05:58.263Z,955.02
2019-03-17T17:06:58.237Z,954.99
2019-03-17T17:07:58.212Z,955.04
2019-03-17T17:08:58.182Z,955.06
2019-03-17T17:09:58.146Z,955.13
2019-03-17T17:11:00.496Z,955.20
2019-03-17T17:11:58.091Z,955.23
2019-03-17T17:12:58.062Z,955.23
2019-03-17T17:13:58.047Z,955.27
2019-03-17T17:14:58.005Z,955.35
2019-03-17T17:15:57.977Z,955.39
2019-03-17T17:16:57.957Z,955.37
2019-03-17T17:17:58.198Z,955.46
2019-03-17T17:18:57.890Z,955.46
2019-03-17T17:19:57.862Z,955.53
2019-03-17T17:20:57.834Z,955.50
2019-03-17T17:21:58.876Z,955.54
2019-03-17T17:22:57.775Z,955.58
2019-03-17T17:23:57.749Z,955.69
2019-03-17T17:24:57.718Z,955.64
2019-03-17T17:25:57.690Z,955.76
2019-03-17T17:26:57.663Z,955.73
2019-03-17T17:27:57.632Z,955.80
2019-03-17T17:28:57.606Z,955.87
2019-03-17T17:29:57.575Z,955.94
2019-03-17T17:30:57.546Z,956.00
2019-03-17T17:31:57.522Z,956.02
2019-03-17T17:32:57.488Z,955.98
2019-03-17T17:33:57.460Z,956.04
2019-03-17T17:34:57.432Z,956.03
2019-03-17T17:35:57.403Z,956.04
2019-03-17T17:36:57.374Z,956.07
2019-03-17T17:37:57.345Z,955.99
2019-03-17T17:38:57.318Z,955.96
2019-03-17T17:39:57.289Z,956.06
2019-03-17T17:40:57.260Z,956.02
2019-03-17T17:42:08.288Z,956.01
2019-03-17T17:42:57.202Z,956.00
2019-03-17T17:43:57.175Z,956.01
2019-03-17T17:44:57.147Z,956.10
2019-03-17T17:45:57.118Z,956.11
2019-03-17T17:46:58.261Z,956.19
2019-03-17T17:47:57.063Z,956.22
2019-03-17T17:48:57.032Z,956.25
2019-03-17T17:49:57.005Z,956.22
2019-03-17T17:50:56.976Z,956.30
2019-03-17T17:51:56.948Z,956.35
2019-03-17T17:52:56.920Z,956.27
2019-03-17T17:53:56.891Z,956.30
2019-03-17T17:54:56.863Z,956.35
2019-03-17T17:55:56.833Z,956.38
2019-03-17T17:56:56.806Z,956.34
2019-03-17T17:57:56.777Z,956.41
2019-03-17T17:58:56.750Z,956.41
2019-03-17T17:59:56.721Z,956.44
2019-03-17T18:00:56.692Z,956.48
2019-03-17T18:01:56.662Z,956.50
2019-03-17T18:02:58.842Z,956.50
2019-03-17T18:03:56.606Z,956.54
2019-03-17T18:04:56.578Z,956.51
2019-03-17T18:05:56.552Z,956.54
2019-03-17T18:06:56.521Z,956.58
2019-03-17T18:07:56.493Z,956.60
2019-03-17T18:08:56.464Z,956.69
2019-03-17T18:09:56.437Z,956.64
2019-03-17T18:10:56.408Z,956.59
2019-03-17T18:11:56.379Z,956.60
2019-03-17T18:12:56.350Z,956.63
2019-03-17T18:13:56.322Z,956.61
2019-03-17T18:14:57.795Z,956.54
2019-03-17T18:15:56.264Z,956.65
2019-03-17T18:16:56.237Z,956.60
2019-03-17T18:17:56.209Z,956.61
2019-03-17T18:18:56.181Z,956.70
2019-03-17T18:19:56.153Z,956.64
2019-03-17T18:20:56.123Z,956.76
2019-03-17T18:21:56.095Z,956.76
2019-03-17T18:22:56.066Z,956.81
2019-03-17T18:23:56.037Z,956.80
2019-03-17T18:24:56.011Z,956.85
2019-03-17T18:25:55.980Z,956.88
2019-03-17T18:26:55.952Z,956.80
2019-03-17T18:27:55.926Z,956.92
2019-03-17T18:28:55.903Z,956.84
2019-03-17T18:29:55.867Z,956.89
2019-03-17T18:30:55.839Z,956.88
2019-03-17T18:31:55.810Z,956.95
2019-03-17T18:32:55.781Z,956.99
2019-03-17T18:33:55.752Z,957.01
2019-03-17T18:34:55.729Z,956.98
2019-03-17T18:35:55.724Z,957.05
2019-03-17T18:36:55.667Z,957.04
2019-03-17T18:37:55.695Z,956.95
2019-03-17T18:38:55.637Z,956.90
2019-03-17T18:39:55.584Z,956.87
2019-03-17T18:40:55.553Z,956.89
2019-03-17T18:41:55.524Z,956.88
2019-03-17T18:42:55.496Z,956.90
2019-03-17T18:43:55.470Z,957.03
2019-03-17T18:44:55.438Z,957.07
2019-03-17T18:45:55.410Z,957.11
2019-03-17T18:46:55.382Z,957.11
2019-03-17T18:47:57.570Z,957.18
2019-03-17T18:48:55.324Z,957.19
2019-03-17T18:49:55.296Z,957.26
2019-03-17T18:50:55.268Z,957.25
2019-03-17T18:51:55.239Z,957.28
2019-03-17T18:52:55.212Z,957.33
2019-03-17T18:53:55.182Z,957.34
2019-03-17T18:54:55.244Z,957.37
2019-03-17T18:55:55.125Z,957.38
2019-03-17T18:56:55.096Z,957.40
2019-03-17T18:57:55.068Z,957.46
2019-03-17T18:58:55.039Z,957.45
2019-03-17T18:59:55.012Z,957.48
2019-03-17T19:00:54.983Z,957.50
2019-03-17T19:01:54.953Z,957.53
2019-03-17T19:02:54.927Z,957.62
2019-03-17T19:03:54.901Z,957.60
2019-03-17T19:04:55.625Z,957.57
2019-03-17T19:05:54.843Z,957.60
2019-03-17T19:06:54.815Z,957.58
2019-03-17T19:07:54.785Z,957.62
2019-03-17T19:08:54.756Z,957.66
2019-03-17T19:09:54.728Z,957.65
2019-03-17T19:10:55.109Z,957.70
2019-03-17T19:11:54.672Z,957.71
2019-03-17T19:12:54.642Z,957.71
2019-03-17T19:13:54.613Z,957.75
2019-03-17T19:14:54.585Z,957.88
2019-03-17T19:15:54.557Z,957.92
2019-03-17T19:16:54.530Z,957.87
2019-03-17T19:17:54.500Z,957.91
2019-03-17T19:18:54.473Z,957.96
2019-03-17T19:19:54.445Z,958.06
2019-03-17T19:20:54.417Z,958.05
2019-03-17T19:21:54.388Z,958.12
2019-03-17T19:22:54.363Z,958.08
2019-03-17T19:23:54.332Z,958.05
2019-03-17T19:24:54.303Z,957.96
2019-03-17T19:25:56.626Z,957.93
2019-03-17T19:26:54.247Z,957.91
2019-03-17T19:27:54.219Z,957.90
2019-03-17T19:28:54.189Z,957.91
2019-03-17T19:29:54.161Z,957.85
2019-03-17T19:30:54.133Z,957.82
2019-03-17T19:31:54.856Z,957.83
2019-03-17T19:32:54.081Z,957.86
2019-03-17T19:33:54.050Z,957.90